sensor_id;sensor_type;location;lat;lon;timestamp;temperature;humidity
22850;DHT22;11591;44.792;10.358;2023-01-29T00:01:08;3.20;99.90
22850;DHT22;11591;44.792;10.358;2023-01-29T00:03:34;3.30;99.90
22850;DHT22;11591;44.792;10.358;2023-01-29T00:06:04;3.30;99.90
22850;DHT22;11591;44.792;10.358;2023-01-29T00:08:37;3.30;99.90
22850;DHT22;11591;44.792;10.358;2023-01-29T00:11:04;3.20;99.90
22850;DHT22;11591;44.792;10.358;2023-01-29T00:13:30;3.20;99.90
22850;DHT22;11591;44.792;10.358;2023-01-29T00:15:57;3.20;99.90
22850;DHT22;11591;44.792;10.358;2023-01-29T00:18:24;3.10;99.90
22850;DHT22;11591;44.792;10.358;2023-01-29T00:20:50;3.00;99.90
22850;DHT22;11591;44.792;10.358;2023-01-29T00:23:16;3.10;99.90
22850;DHT22;11591;44.792;10.358;2023-01-29T00:25:43;3.00;99.90
22850;DHT22;11591;44.792;10.358;2023-01-29T00:28:09;3.00;99.90
22850;DHT22;11591;44.792;10.358;2023-01-29T00:30:36;3.00;99.90
22850;DHT22;11591;44.792;10.358;2023-01-29T00:33:02;3.00;99.90
22850;DHT22;11591;44.792;10.358;2023-01-29T00:35:28;2.90;99.90
22850;DHT22;11591;44.792;10.358;2023-01-29T00:37:55;2.90;99.90
22850;DHT22;11591;44.792;10.358;2023-01-29T00:40:22;2.90;99.90
22850;DHT22;11591;44.792;10.358;2023-01-29T00:42:48;2.80;99.90
22850;DHT22;11591;44.792;10.358;2023-01-29T00:45:33;2.80;99.90
22850;DHT22;11591;44.792;10.358;2023-01-29T00:48:02;2.80;99.90
22850;DHT22;11591;44.792;10.358;2023-01-29T00:50:28;2.70;99.90
22850;DHT22;11591;44.792;10.358;2023-01-29T00:52:54;2.70;99.90
22850;DHT22;11591;44.792;10.358;2023-01-29T00:55:20;2.70;99.90
22850;DHT22;11591;44.792;10.358;2023-01-29T00:57:46;2.70;99.90
22850;DHT22;11591;44.792;10.358;2023-01-29T01:00:14;2.70;99.90
22850;DHT22;11591;44.792;10.358;2023-01-29T01:02:41;2.70;99.90
22850;DHT22;11591;44.792;10.358;2023-01-29T01:05:26;2.70;99.90
22850;DHT22;11591;44.792;10.358;2023-01-29T01:07:54;2.80;99.90
22850;DHT22;11591;44.792;10.358;2023-01-29T01:10:24;2.70;99.90
22850;DHT22;11591;44.792;10.358;2023-01-29T01:13:03;2.80;99.90
22850;DHT22;11591;44.792;10.358;2023-01-29T01:15:37;2.80;99.90
22850;DHT22;11591;44.792;10.358;2023-01-29T01:18:04;2.70;99.90
22850;DHT22;11591;44.792;10.358;2023-01-29T01:20:32;2.60;99.90
22850;DHT22;11591;44.792;10.358;2023-01-29T01:22:58;2.60;99.90
22850;DHT22;11591;44.792;10.358;2023-01-29T01:25:25;2.60;99.90
22850;DHT22;11591;44.792;10.358;2023-01-29T01:27:52;2.60;99.90
22850;DHT22;11591;44.792;10.358;2023-01-29T01:30:18;2.70;99.90
22850;DHT22;11591;44.792;10.358;2023-01-29T01:32:44;2.60;99.90
22850;DHT22;11591;44.792;10.358;2023-01-29T01:35:11;2.60;99.90
22850;DHT22;11591;44.792;10.358;2023-01-29T01:37:39;2.50;99.90
22850;DHT22;11591;44.792;10.358;2023-01-29T01:40:09;2.50;99.90
22850;DHT22;11591;44.792;10.358;2023-01-29T01:42:40;2.50;99.90
22850;DHT22;11591;44.792;10.358;2023-01-29T01:45:22;2.50;99.90
22850;DHT22;11591;44.792;10.358;2023-01-29T01:53:12;2.50;99.90
22850;DHT22;11591;44.792;10.358;2023-01-29T01:55:47;2.50;99.90
22850;DHT22;11591;44.792;10.358;2023-01-29T01:58:25;2.40;99.90
22850;DHT22;11591;44.792;10.358;2023-01-29T02:00:51;2.40;99.90
22850;DHT22;11591;44.792;10.358;2023-01-29T02:03:19;2.40;99.90
22850;DHT22;11591;44.792;10.358;2023-01-29T02:06:05;2.50;99.90
22850;DHT22;11591;44.792;10.358;2023-01-29T02:09:07;2.60;99.90
22850;DHT22;11591;44.792;10.358;2023-01-29T02:11:54;2.60;99.90
22850;DHT22;11591;44.792;10.358;2023-01-29T02:14:20;2.70;99.90
22850;DHT22;11591;44.792;10.358;2023-01-29T02:16:46;2.60;99.90
22850;DHT22;11591;44.792;10.358;2023-01-29T02:22:59;2.60;99.90
22850;DHT22;11591;44.792;10.358;2023-01-29T02:28:46;2.50;99.90
22850;DHT22;11591;44.792;10.358;2023-01-29T02:34:13;2.30;99.90
22850;DHT22;11591;44.792;10.358;2023-01-29T02:39:32;2.20;99.90
22850;DHT22;11591;44.792;10.358;2023-01-29T02:42:00;2.10;99.90
22850;DHT22;11591;44.792;10.358;2023-01-29T02:44:42;2.10;99.90
22850;DHT22;11591;44.792;10.358;2023-01-29T02:50:02;2.10;99.90
22850;DHT22;11591;44.792;10.358;2023-01-29T02:53:01;2.10;99.90
22850;DHT22;11591;44.792;10.358;2023-01-29T02:55:37;2.10;99.90
22850;DHT22;11591;44.792;10.358;2023-01-29T02:58:16;2.10;99.90
22850;DHT22;11591;44.792;10.358;2023-01-29T03:00:46;2.00;99.90
22850;DHT22;11591;44.792;10.358;2023-01-29T03:03:19;2.00;99.90
22850;DHT22;11591;44.792;10.358;2023-01-29T03:08:46;2.10;99.90
22850;DHT22;11591;44.792;10.358;2023-01-29T03:11:16;2.10;99.90
22850;DHT22;11591;44.792;10.358;2023-01-29T03:13:52;2.10;99.90
22850;DHT22;11591;44.792;10.358;2023-01-29T03:21:40;2.10;99.90
22850;DHT22;11591;44.792;10.358;2023-01-29T03:27:23;2.00;99.90
22850;DHT22;11591;44.792;10.358;2023-01-29T03:30:11;1.90;99.90
22850;DHT22;11591;44.792;10.358;2023-01-29T03:33:09;1.90;99.90
22850;DHT22;11591;44.792;10.358;2023-01-29T03:36:00;1.80;99.90
22850;DHT22;11591;44.792;10.358;2023-01-29T03:38:29;1.80;99.90
22850;DHT22;11591;44.792;10.358;2023-01-29T03:41:03;1.80;99.90
22850;DHT22;11591;44.792;10.358;2023-01-29T03:43:42;1.80;99.90
22850;DHT22;11591;44.792;10.358;2023-01-29T03:52:55;1.80;99.90
22850;DHT22;11591;44.792;10.358;2023-01-29T03:57:55;1.70;99.90
22850;DHT22;11591;44.792;10.358;2023-01-29T04:00:27;1.70;99.90
22850;DHT22;11591;44.792;10.358;2023-01-29T04:03:14;1.70;99.90
22850;DHT22;11591;44.792;10.358;2023-01-29T04:06:02;1.70;99.90
22850;DHT22;11591;44.792;10.358;2023-01-29T04:11:19;1.70;99.90
22850;DHT22;11591;44.792;10.358;2023-01-29T04:13:46;1.70;99.90
22850;DHT22;11591;44.792;10.358;2023-01-29T04:16:36;1.70;99.90
22850;DHT22;11591;44.792;10.358;2023-01-29T04:19:17;1.70;99.90
22850;DHT22;11591;44.792;10.358;2023-01-29T04:21:46;1.70;99.90
22850;DHT22;11591;44.792;10.358;2023-01-29T04:24:14;1.70;99.90
22850;DHT22;11591;44.792;10.358;2023-01-29T04:27:05;1.70;99.90
22850;DHT22;11591;44.792;10.358;2023-01-29T04:30:02;1.70;99.90
22850;DHT22;11591;44.792;10.358;2023-01-29T04:35:27;1.70;99.90
22850;DHT22;11591;44.792;10.358;2023-01-29T04:40:55;1.70;99.90
22850;DHT22;11591;44.792;10.358;2023-01-29T04:46:05;1.90;99.90
22850;DHT22;11591;44.792;10.358;2023-01-29T04:48:59;1.80;99.90
22850;DHT22;11591;44.792;10.358;2023-01-29T04:54:35;1.60;99.90
22850;DHT22;11591;44.792;10.358;2023-01-29T04:57:17;1.50;99.90
22850;DHT22;11591;44.792;10.358;2023-01-29T05:00:12;1.50;99.90
22850;DHT22;11591;44.792;10.358;2023-01-29T05:02:39;1.50;99.90
22850;DHT22;11591;44.792;10.358;2023-01-29T05:05:06;1.50;99.90
22850;DHT22;11591;44.792;10.358;2023-01-29T05:07:35;1.50;99.90
22850;DHT22;11591;44.792;10.358;2023-01-29T05:10:04;1.60;99.90
22850;DHT22;11591;44.792;10.358;2023-01-29T05:12:32;1.60;99.90
22850;DHT22;11591;44.792;10.358;2023-01-29T05:15:01;1.60;99.90
22850;DHT22;11591;44.792;10.358;2023-01-29T05:17:29;1.60;99.90
22850;DHT22;11591;44.792;10.358;2023-01-29T05:19:55;1.60;99.90
22850;DHT22;11591;44.792;10.358;2023-01-29T05:22:21;1.70;99.90
22850;DHT22;11591;44.792;10.358;2023-01-29T05:24:48;1.70;99.90
22850;DHT22;11591;44.792;10.358;2023-01-29T05:27:20;1.70;99.90
22850;DHT22;11591;44.792;10.358;2023-01-29T05:30:06;1.60;99.90
22850;DHT22;11591;44.792;10.358;2023-01-29T05:32:32;1.60;99.90
22850;DHT22;11591;44.792;10.358;2023-01-29T05:34:58;1.60;99.90
22850;DHT22;11591;44.792;10.358;2023-01-29T05:37:24;1.60;99.90
22850;DHT22;11591;44.792;10.358;2023-01-29T05:39:49;1.60;99.90
22850;DHT22;11591;44.792;10.358;2023-01-29T05:42:15;1.50;99.90
22850;DHT22;11591;44.792;10.358;2023-01-29T05:44:41;1.50;99.90
22850;DHT22;11591;44.792;10.358;2023-01-29T05:47:07;1.60;99.90
22850;DHT22;11591;44.792;10.358;2023-01-29T05:49:33;1.60;99.90
22850;DHT22;11591;44.792;10.358;2023-01-29T05:51:58;1.60;99.90
22850;DHT22;11591;44.792;10.358;2023-01-29T05:54:24;1.60;99.90
22850;DHT22;11591;44.792;10.358;2023-01-29T05:56:50;1.60;99.90
22850;DHT22;11591;44.792;10.358;2023-01-29T05:59:16;1.60;99.90
22850;DHT22;11591;44.792;10.358;2023-01-29T06:01:42;1.60;99.90
22850;DHT22;11591;44.792;10.358;2023-01-29T06:04:07;1.60;99.90
22850;DHT22;11591;44.792;10.358;2023-01-29T06:06:33;1.60;99.90
22850;DHT22;11591;44.792;10.358;2023-01-29T06:08:59;1.60;99.90
22850;DHT22;11591;44.792;10.358;2023-01-29T06:11:25;1.60;99.90
22850;DHT22;11591;44.792;10.358;2023-01-29T06:13:51;1.60;99.90
22850;DHT22;11591;44.792;10.358;2023-01-29T06:16:16;1.60;99.90
22850;DHT22;11591;44.792;10.358;2023-01-29T06:18:42;1.60;99.90
22850;DHT22;11591;44.792;10.358;2023-01-29T06:21:11;1.50;99.90
22850;DHT22;11591;44.792;10.358;2023-01-29T06:23:38;1.50;99.90
22850;DHT22;11591;44.792;10.358;2023-01-29T06:26:09;1.50;99.90
22850;DHT22;11591;44.792;10.358;2023-01-29T06:28:36;1.50;99.90
22850;DHT22;11591;44.792;10.358;2023-01-29T06:31:03;1.50;99.90
22850;DHT22;11591;44.792;10.358;2023-01-29T06:33:29;1.50;99.90
22850;DHT22;11591;44.792;10.358;2023-01-29T06:36:00;1.50;99.90
22850;DHT22;11591;44.792;10.358;2023-01-29T06:38:26;1.50;99.90
22850;DHT22;11591;44.792;10.358;2023-01-29T06:40:53;1.40;99.90
22850;DHT22;11591;44.792;10.358;2023-01-29T06:43:20;1.40;99.90
22850;DHT22;11591;44.792;10.358;2023-01-29T06:45:51;1.50;99.90
22850;DHT22;11591;44.792;10.358;2023-01-29T06:48:17;1.40;99.90
22850;DHT22;11591;44.792;10.358;2023-01-29T06:50:43;1.40;99.90
22850;DHT22;11591;44.792;10.358;2023-01-29T06:53:09;1.40;99.90
22850;DHT22;11591;44.792;10.358;2023-01-29T06:55:35;1.40;99.90
22850;DHT22;11591;44.792;10.358;2023-01-29T06:58:08;1.40;99.90
22850;DHT22;11591;44.792;10.358;2023-01-29T07:00:34;1.40;99.90
22850;DHT22;11591;44.792;10.358;2023-01-29T07:03:01;1.40;99.90
22850;DHT22;11591;44.792;10.358;2023-01-29T07:05:27;1.30;99.90
22850;DHT22;11591;44.792;10.358;2023-01-29T07:07:53;1.40;99.90
22850;DHT22;11591;44.792;10.358;2023-01-29T07:10:19;1.40;99.90
22850;DHT22;11591;44.792;10.358;2023-01-29T07:13:01;1.40;99.90
22850;DHT22;11591;44.792;10.358;2023-01-29T07:15:27;1.40;99.90
22850;DHT22;11591;44.792;10.358;2023-01-29T07:18:00;1.40;99.90
22850;DHT22;11591;44.792;10.358;2023-01-29T07:20:28;1.30;99.90
22850;DHT22;11591;44.792;10.358;2023-01-29T07:22:55;1.30;99.90
22850;DHT22;11591;44.792;10.358;2023-01-29T07:25:22;1.30;99.90
22850;DHT22;11591;44.792;10.358;2023-01-29T07:27:48;1.30;99.90
22850;DHT22;11591;44.792;10.358;2023-01-29T07:30:15;1.40;99.90
22850;DHT22;11591;44.792;10.358;2023-01-29T07:32:41;1.40;99.90
22850;DHT22;11591;44.792;10.358;2023-01-29T07:35:07;1.40;99.90
22850;DHT22;11591;44.792;10.358;2023-01-29T07:37:33;1.40;99.90
22850;DHT22;11591;44.792;10.358;2023-01-29T07:39:59;1.30;99.90
22850;DHT22;11591;44.792;10.358;2023-01-29T07:42:25;1.40;99.90
22850;DHT22;11591;44.792;10.358;2023-01-29T07:44:50;1.40;99.90
22850;DHT22;11591;44.792;10.358;2023-01-29T07:47:16;1.40;99.90
22850;DHT22;11591;44.792;10.358;2023-01-29T07:49:42;1.40;99.90
22850;DHT22;11591;44.792;10.358;2023-01-29T07:52:08;1.40;99.90
22850;DHT22;11591;44.792;10.358;2023-01-29T07:54:34;1.50;99.90
22850;DHT22;11591;44.792;10.358;2023-01-29T07:56:59;1.50;99.90
22850;DHT22;11591;44.792;10.358;2023-01-29T07:59:25;1.60;99.90
22850;DHT22;11591;44.792;10.358;2023-01-29T08:01:51;1.60;99.90
22850;DHT22;11591;44.792;10.358;2023-01-29T08:04:17;1.60;99.90
22850;DHT22;11591;44.792;10.358;2023-01-29T08:06:43;1.70;99.90
22850;DHT22;11591;44.792;10.358;2023-01-29T08:09:09;1.80;99.90
22850;DHT22;11591;44.792;10.358;2023-01-29T08:11:35;1.80;99.90
22850;DHT22;11591;44.792;10.358;2023-01-29T08:14:01;1.90;99.90
22850;DHT22;11591;44.792;10.358;2023-01-29T08:16:26;1.90;99.90
22850;DHT22;11591;44.792;10.358;2023-01-29T08:18:52;2.00;99.90
22850;DHT22;11591;44.792;10.358;2023-01-29T08:21:18;2.10;99.90
22850;DHT22;11591;44.792;10.358;2023-01-29T08:23:44;2.10;99.90
22850;DHT22;11591;44.792;10.358;2023-01-29T08:26:09;2.10;99.90
22850;DHT22;11591;44.792;10.358;2023-01-29T08:28:36;2.20;99.90
22850;DHT22;11591;44.792;10.358;2023-01-29T08:31:04;2.30;99.90
22850;DHT22;11591;44.792;10.358;2023-01-29T08:33:36;2.30;99.90
22850;DHT22;11591;44.792;10.358;2023-01-29T08:36:02;2.40;99.90
22850;DHT22;11591;44.792;10.358;2023-01-29T08:38:28;2.50;99.90
22850;DHT22;11591;44.792;10.358;2023-01-29T08:40:54;2.50;99.90
22850;DHT22;11591;44.792;10.358;2023-01-29T08:43:20;2.50;99.90
22850;DHT22;11591;44.792;10.358;2023-01-29T08:45:45;2.60;99.90
22850;DHT22;11591;44.792;10.358;2023-01-29T08:48:11;2.60;99.90
22850;DHT22;11591;44.792;10.358;2023-01-29T08:50:37;2.60;99.90
22850;DHT22;11591;44.792;10.358;2023-01-29T08:53:05;2.70;99.90
22850;DHT22;11591;44.792;10.358;2023-01-29T08:55:35;2.70;99.90
22850;DHT22;11591;44.792;10.358;2023-01-29T08:58:03;2.80;99.90
22850;DHT22;11591;44.792;10.358;2023-01-29T09:00:30;2.80;99.90
22850;DHT22;11591;44.792;10.358;2023-01-29T09:02:56;2.90;99.90
22850;DHT22;11591;44.792;10.358;2023-01-29T09:05:24;2.90;99.90
22850;DHT22;11591;44.792;10.358;2023-01-29T09:07:50;3.00;99.90
22850;DHT22;11591;44.792;10.358;2023-01-29T09:10:16;3.00;99.90
22850;DHT22;11591;44.792;10.358;2023-01-29T09:12:42;3.00;99.90
22850;DHT22;11591;44.792;10.358;2023-01-29T09:15:08;3.10;99.90
22850;DHT22;11591;44.792;10.358;2023-01-29T09:17:34;3.10;99.90
22850;DHT22;11591;44.792;10.358;2023-01-29T09:20:00;3.10;99.90
22850;DHT22;11591;44.792;10.358;2023-01-29T09:22:25;3.20;99.90
22850;DHT22;11591;44.792;10.358;2023-01-29T09:24:51;3.20;99.90
22850;DHT22;11591;44.792;10.358;2023-01-29T09:27:17;3.20;99.90
22850;DHT22;11591;44.792;10.358;2023-01-29T09:29:43;3.30;99.90
22850;DHT22;11591;44.792;10.358;2023-01-29T09:32:09;3.30;99.90
22850;DHT22;11591;44.792;10.358;2023-01-29T09:34:35;3.40;99.90
22850;DHT22;11591;44.792;10.358;2023-01-29T09:37:01;3.40;99.90
22850;DHT22;11591;44.792;10.358;2023-01-29T09:39:26;3.50;99.90
22850;DHT22;11591;44.792;10.358;2023-01-29T09:47:34;3.60;99.90
22850;DHT22;11591;44.792;10.358;2023-01-29T09:50:02;3.70;99.90
22850;DHT22;11591;44.792;10.358;2023-01-29T09:52:35;3.70;99.90
22850;DHT22;11591;44.792;10.358;2023-01-29T09:55:10;3.70;99.90
22850;DHT22;11591;44.792;10.358;2023-01-29T09:57:52;3.80;99.90
22850;DHT22;11591;44.792;10.358;2023-01-29T10:09:06;3.90;99.90
22850;DHT22;11591;44.792;10.358;2023-01-29T10:14:27;4.00;99.90
22850;DHT22;11591;44.792;10.358;2023-01-29T10:19:55;3.90;99.90
22850;DHT22;11591;44.792;10.358;2023-01-29T10:22:48;3.90;99.90
22850;DHT22;11591;44.792;10.358;2023-01-29T10:25:19;4.00;99.90
22850;DHT22;11591;44.792;10.358;2023-01-29T10:27:52;4.10;99.90
22850;DHT22;11591;44.792;10.358;2023-01-29T10:30:35;4.10;99.90
22850;DHT22;11591;44.792;10.358;2023-01-29T10:33:13;4.20;99.90
22850;DHT22;11591;44.792;10.358;2023-01-29T10:35:45;4.20;99.90
22850;DHT22;11591;44.792;10.358;2023-01-29T10:38:23;4.20;99.90
22850;DHT22;11591;44.792;10.358;2023-01-29T10:44:19;4.30;99.90
22850;DHT22;11591;44.792;10.358;2023-01-29T10:57:20;4.40;99.90
22850;DHT22;11591;44.792;10.358;2023-01-29T10:59:58;4.40;99.90
22850;DHT22;11591;44.792;10.358;2023-01-29T11:02:26;4.40;99.90
22850;DHT22;11591;44.792;10.358;2023-01-29T11:04:51;4.50;99.90
22850;DHT22;11591;44.792;10.358;2023-01-29T11:07:18;4.50;99.90
22850;DHT22;11591;44.792;10.358;2023-01-29T11:10:01;4.50;99.90
22850;DHT22;11591;44.792;10.358;2023-01-29T11:12:29;4.50;99.90
22850;DHT22;11591;44.792;10.358;2023-01-29T11:14:57;4.60;99.90
22850;DHT22;11591;44.792;10.358;2023-01-29T11:17:26;4.70;99.90
22850;DHT22;11591;44.792;10.358;2023-01-29T11:19:53;4.70;99.90
22850;DHT22;11591;44.792;10.358;2023-01-29T11:22:24;4.80;99.90
22850;DHT22;11591;44.792;10.358;2023-01-29T11:25:18;4.80;99.90
22850;DHT22;11591;44.792;10.358;2023-01-29T11:27:55;4.90;99.90
22850;DHT22;11591;44.792;10.358;2023-01-29T11:30:27;4.90;99.90
22850;DHT22;11591;44.792;10.358;2023-01-29T11:33:10;5.00;99.90
22850;DHT22;11591;44.792;10.358;2023-01-29T11:35:37;5.00;99.90
22850;DHT22;11591;44.792;10.358;2023-01-29T11:40:41;5.00;99.90
22850;DHT22;11591;44.792;10.358;2023-01-29T11:45:54;5.10;99.90
22850;DHT22;11591;44.792;10.358;2023-01-29T11:48:22;5.10;99.90
22850;DHT22;11591;44.792;10.358;2023-01-29T11:50:53;5.20;99.90
22850;DHT22;11591;44.792;10.358;2023-01-29T11:53:25;5.20;99.90
22850;DHT22;11591;44.792;10.358;2023-01-29T11:55:52;5.30;99.90
22850;DHT22;11591;44.792;10.358;2023-01-29T11:58:27;5.30;99.90
22850;DHT22;11591;44.792;10.358;2023-01-29T12:00:55;5.30;99.90
22850;DHT22;11591;44.792;10.358;2023-01-29T12:03:35;5.40;99.90
22850;DHT22;11591;44.792;10.358;2023-01-29T12:06:15;5.40;99.90
22850;DHT22;11591;44.792;10.358;2023-01-29T12:08:43;5.40;99.90
22850;DHT22;11591;44.792;10.358;2023-01-29T12:11:14;5.50;99.90
22850;DHT22;11591;44.792;10.358;2023-01-29T12:13:53;5.50;99.90
22850;DHT22;11591;44.792;10.358;2023-01-29T12:16:55;5.60;99.90
22850;DHT22;11591;44.792;10.358;2023-01-29T12:20:01;5.60;99.90
22850;DHT22;11591;44.792;10.358;2023-01-29T12:25:33;5.70;99.90
22850;DHT22;11591;44.792;10.358;2023-01-29T12:34:04;5.90;99.90
22850;DHT22;11591;44.792;10.358;2023-01-29T12:39:15;5.90;99.90
22850;DHT22;11591;44.792;10.358;2023-01-29T12:41:59;5.90;99.90
22850;DHT22;11591;44.792;10.358;2023-01-29T12:44:40;5.90;99.90
22850;DHT22;11591;44.792;10.358;2023-01-29T12:49:51;6.00;99.90
22850;DHT22;11591;44.792;10.358;2023-01-29T12:55:16;6.20;99.90
22850;DHT22;11591;44.792;10.358;2023-01-29T13:00:26;6.30;99.90
22850;DHT22;11591;44.792;10.358;2023-01-29T13:05:35;6.30;99.90
22850;DHT22;11591;44.792;10.358;2023-01-29T13:08:13;6.40;99.90
22850;DHT22;11591;44.792;10.358;2023-01-29T13:10:45;6.40;99.90
22850;DHT22;11591;44.792;10.358;2023-01-29T13:15:44;6.50;99.90
22850;DHT22;11591;44.792;10.358;2023-01-29T13:18:36;6.50;99.90
22850;DHT22;11591;44.792;10.358;2023-01-29T13:21:04;6.50;99.90
22850;DHT22;11591;44.792;10.358;2023-01-29T13:23:37;6.60;99.90
22850;DHT22;11591;44.792;10.358;2023-01-29T13:26:04;6.60;99.90
22850;DHT22;11591;44.792;10.358;2023-01-29T13:28:30;6.60;99.90
22850;DHT22;11591;44.792;10.358;2023-01-29T13:31:32;6.60;99.90
22850;DHT22;11591;44.792;10.358;2023-01-29T13:36:30;6.70;99.90
22850;DHT22;11591;44.792;10.358;2023-01-29T13:39:01;6.80;99.90
22850;DHT22;11591;44.792;10.358;2023-01-29T13:41:40;6.90;99.90
22850;DHT22;11591;44.792;10.358;2023-01-29T13:44:36;6.90;99.90
22850;DHT22;11591;44.792;10.358;2023-01-29T13:47:05;7.00;99.90
22850;DHT22;11591;44.792;10.358;2023-01-29T13:49:41;7.00;99.90
22850;DHT22;11591;44.792;10.358;2023-01-29T13:57:52;7.30;99.90
22850;DHT22;11591;44.792;10.358;2023-01-29T14:05:58;7.90;99.90
22850;DHT22;11591;44.792;10.358;2023-01-29T14:13:47;8.60;99.90
22850;DHT22;11591;44.792;10.358;2023-01-29T14:18:56;9.00;99.90
22850;DHT22;11591;44.792;10.358;2023-01-29T14:21:26;9.40;99.90
22850;DHT22;11591;44.792;10.358;2023-01-29T14:26:39;10.10;99.90
22850;DHT22;11591;44.792;10.358;2023-01-29T14:29:22;10.30;99.90
22850;DHT22;11591;44.792;10.358;2023-01-29T14:32:00;10.50;99.90
22850;DHT22;11591;44.792;10.358;2023-01-29T14:34:35;10.80;99.90
22850;DHT22;11591;44.792;10.358;2023-01-29T14:40:12;11.00;99.90
22850;DHT22;11591;44.792;10.358;2023-01-29T14:43:03;11.10;99.90
22850;DHT22;11591;44.792;10.358;2023-01-29T14:45:36;11.20;99.90
22850;DHT22;11591;44.792;10.358;2023-01-29T14:50:40;11.40;99.90
22850;DHT22;11591;44.792;10.358;2023-01-29T14:53:27;11.50;99.90
22850;DHT22;11591;44.792;10.358;2023-01-29T15:01:30;11.70;99.90
22850;DHT22;11591;44.792;10.358;2023-01-29T15:09:08;11.80;99.90
22850;DHT22;11591;44.792;10.358;2023-01-29T15:11:48;12.00;99.90
22850;DHT22;11591;44.792;10.358;2023-01-29T15:14:31;12.00;99.90
22850;DHT22;11591;44.792;10.358;2023-01-29T15:19:36;12.00;99.90
22850;DHT22;11591;44.792;10.358;2023-01-29T15:24:36;11.90;99.90
22850;DHT22;11591;44.792;10.358;2023-01-29T15:27:03;12.00;99.90
22850;DHT22;11591;44.792;10.358;2023-01-29T15:29:30;11.90;99.90
22850;DHT22;11591;44.792;10.358;2023-01-29T15:31:56;11.70;99.90
22850;DHT22;11591;44.792;10.358;2023-01-29T15:34:23;11.60;99.90
22850;DHT22;11591;44.792;10.358;2023-01-29T15:36:50;11.60;99.90
22850;DHT22;11591;44.792;10.358;2023-01-29T15:39:23;11.60;99.90
22850;DHT22;11591;44.792;10.358;2023-01-29T15:41:53;11.50;99.90
22850;DHT22;11591;44.792;10.358;2023-01-29T15:44:29;11.50;99.90
22850;DHT22;11591;44.792;10.358;2023-01-29T15:46:57;11.30;99.90
22850;DHT22;11591;44.792;10.358;2023-01-29T15:49:33;11.20;99.90
22850;DHT22;11591;44.792;10.358;2023-01-29T15:52:04;11.10;99.90
22850;DHT22;11591;44.792;10.358;2023-01-29T15:54:32;10.90;99.90
22850;DHT22;11591;44.792;10.358;2023-01-29T15:56:59;10.70;99.90
22850;DHT22;11591;44.792;10.358;2023-01-29T15:59:31;10.60;99.90
22850;DHT22;11591;44.792;10.358;2023-01-29T16:02:19;10.30;99.90
22850;DHT22;11591;44.792;10.358;2023-01-29T16:04:46;10.20;99.90
22850;DHT22;11591;44.792;10.358;2023-01-29T16:07:12;10.10;99.90
22850;DHT22;11591;44.792;10.358;2023-01-29T16:09:38;9.90;99.90
22850;DHT22;11591;44.792;10.358;2023-01-29T16:12:04;9.70;99.90
22850;DHT22;11591;44.792;10.358;2023-01-29T16:14:30;9.60;99.90
22850;DHT22;11591;44.792;10.358;2023-01-29T16:16:56;9.40;99.90
22850;DHT22;11591;44.792;10.358;2023-01-29T16:19:35;9.20;99.90
22850;DHT22;11591;44.792;10.358;2023-01-29T16:22:02;9.00;99.90
22850;DHT22;11591;44.792;10.358;2023-01-29T16:24:31;8.90;99.90
22850;DHT22;11591;44.792;10.358;2023-01-29T16:27:06;8.70;99.90
22850;DHT22;11591;44.792;10.358;2023-01-29T16:29:34;8.60;99.90
22850;DHT22;11591;44.792;10.358;2023-01-29T16:32:01;8.40;99.90
22850;DHT22;11591;44.792;10.358;2023-01-29T16:34:31;8.30;99.90
22850;DHT22;11591;44.792;10.358;2023-01-29T16:37:01;8.20;99.90
22850;DHT22;11591;44.792;10.358;2023-01-29T16:39:37;8.10;99.90
22850;DHT22;11591;44.792;10.358;2023-01-29T16:45:05;8.00;99.90
22850;DHT22;11591;44.792;10.358;2023-01-29T16:47:36;7.90;99.90
22850;DHT22;11591;44.792;10.358;2023-01-29T16:50:30;7.80;99.90
22850;DHT22;11591;44.792;10.358;2023-01-29T16:53:11;7.70;99.90
22850;DHT22;11591;44.792;10.358;2023-01-29T16:55:45;7.70;99.90
22850;DHT22;11591;44.792;10.358;2023-01-29T16:58:46;7.60;99.90
22850;DHT22;11591;44.792;10.358;2023-01-29T17:01:10;7.60;99.90
22850;DHT22;11591;44.792;10.358;2023-01-29T17:03:36;7.50;99.90
22850;DHT22;11591;44.792;10.358;2023-01-29T17:06:19;7.50;99.90
22850;DHT22;11591;44.792;10.358;2023-01-29T17:08:46;7.40;99.90
22850;DHT22;11591;44.792;10.358;2023-01-29T17:11:23;7.30;99.90
22850;DHT22;11591;44.792;10.358;2023-01-29T17:13:50;7.30;99.90
22850;DHT22;11591;44.792;10.358;2023-01-29T17:16:25;7.30;99.90
22850;DHT22;11591;44.792;10.358;2023-01-29T17:18:51;7.20;99.90
22850;DHT22;11591;44.792;10.358;2023-01-29T17:21:17;7.20;99.90
22850;DHT22;11591;44.792;10.358;2023-01-29T17:23:43;7.10;99.90
22850;DHT22;11591;44.792;10.358;2023-01-29T17:26:12;7.10;99.90
22850;DHT22;11591;44.792;10.358;2023-01-29T17:28:39;7.10;99.90
22850;DHT22;11591;44.792;10.358;2023-01-29T17:31:05;7.00;99.90
22850;DHT22;11591;44.792;10.358;2023-01-29T17:33:40;7.00;99.90
22850;DHT22;11591;44.792;10.358;2023-01-29T17:36:15;6.90;99.90
22850;DHT22;11591;44.792;10.358;2023-01-29T17:38:41;6.90;99.90
22850;DHT22;11591;44.792;10.358;2023-01-29T17:41:26;6.80;99.90
22850;DHT22;11591;44.792;10.358;2023-01-29T17:43:53;6.80;99.90
22850;DHT22;11591;44.792;10.358;2023-01-29T17:46:20;6.70;99.90
22850;DHT22;11591;44.792;10.358;2023-01-29T17:48:46;6.70;99.90
22850;DHT22;11591;44.792;10.358;2023-01-29T17:51:15;6.60;99.90
22850;DHT22;11591;44.792;10.358;2023-01-29T17:53:42;6.60;99.90
22850;DHT22;11591;44.792;10.358;2023-01-29T17:56:23;6.60;99.90
22850;DHT22;11591;44.792;10.358;2023-01-29T17:58:52;6.60;99.90
22850;DHT22;11591;44.792;10.358;2023-01-29T18:01:18;6.50;99.90
22850;DHT22;11591;44.792;10.358;2023-01-29T18:03:44;6.50;99.90
22850;DHT22;11591;44.792;10.358;2023-01-29T18:06:11;6.40;99.90
22850;DHT22;11591;44.792;10.358;2023-01-29T18:08:41;6.40;99.90
22850;DHT22;11591;44.792;10.358;2023-01-29T18:11:11;6.30;99.90
22850;DHT22;11591;44.792;10.358;2023-01-29T18:13:37;6.30;99.90
22850;DHT22;11591;44.792;10.358;2023-01-29T18:16:02;6.20;99.90
22850;DHT22;11591;44.792;10.358;2023-01-29T18:18:28;6.20;99.90
22850;DHT22;11591;44.792;10.358;2023-01-29T18:20:54;6.20;99.90
22850;DHT22;11591;44.792;10.358;2023-01-29T18:23:20;6.00;99.90
22850;DHT22;11591;44.792;10.358;2023-01-29T18:25:46;5.90;99.90
22850;DHT22;11591;44.792;10.358;2023-01-29T18:28:14;5.90;99.90
22850;DHT22;11591;44.792;10.358;2023-01-29T18:30:42;5.90;99.90
22850;DHT22;11591;44.792;10.358;2023-01-29T18:33:10;5.80;99.90
22850;DHT22;11591;44.792;10.358;2023-01-29T18:35:35;5.70;99.90
22850;DHT22;11591;44.792;10.358;2023-01-29T18:38:01;5.60;99.90
22850;DHT22;11591;44.792;10.358;2023-01-29T18:40:27;5.50;99.90
22850;DHT22;11591;44.792;10.358;2023-01-29T18:42:53;5.50;99.90